Time;durP1;ratioP1;P1;durP2;ratioP2;P2;SDS_P1;SDS_P2;PMS_P1;PMS_P2;Temp;Humidity;BMP_temperature;BMP_pressure;BME280_temperature;BME280_humidity;BME280_pressure;Samples;Min_cycle;Max_cycle;Signal;HPM_P1;HPM_P2
2022/07/24 00:01:06;;;;;;;;;;;;;;;;;;5008468;28;19999;-43
2022/07/24 00:03:32;;;;;;;;;;;;;;;;;;5006079;28;19920;-44
2022/07/24 00:05:58;;;;;;;;;;;;;;;;;;5006782;28;20004;-43
2022/07/24 00:08:24;;;;;;;;;;;;;;;;;;5008450;28;19917;-43
2022/07/24 00:10:50;;;;;;;;;;;;;;;;;;5007609;28;19913;-43
2022/07/24 00:13:16;;;;;;;;;;;;;;;;;;5007981;28;19914;-42
2022/07/24 00:15:42;;;;;;;;;;;;;;;;;;5005430;28;19914;-43
2022/07/24 00:18:10;;;;;;;;;;;;;;;;;;5007052;28;20213;-43
2022/07/24 00:20:36;;;;;;;;;;;;;;;;;;5005870;28;19976;-44
2022/07/24 00:23:01;;;;;;;;;;;;;;;;;;5007692;28;19909;-43
2022/07/24 00:25:27;;;;;;;;;;;;;;;;;;5006290;28;20012;-42
2022/07/24 00:27:53;;;;;;;;;;;;;;;;;;5008129;28;19940;-42
2022/07/24 00:30:19;;;;;;;;;;;;;;;;;;5007341;28;20390;-43
2022/07/24 00:32:46;;;;;;;;;;;;;;;;;;5007485;28;19920;-44
2022/07/24 00:35:13;;;;;;;;;;;;;;;;;;5005897;28;20367;-43
2022/07/24 00:37:39;;;;;;;;;;;;;;;;;;5007199;28;19913;-43
2022/07/24 00:40:06;;;;;;;;;;;;;;;;;;5007377;28;20401;-43
2022/07/24 00:42:32;;;;;;;;;;;;;;;;;;5006268;28;20290;-43
2022/07/24 00:44:58;;;;;;;;;;;;;;;;;;5006338;28;19921;-44
2022/07/24 00:47:24;;;;;;;;;;;;;;;;;;5007621;28;19918;-44
2022/07/24 00:49:50;;;;;;;;;;;;;;;;;;5006559;28;19920;-43
2022/07/24 00:52:16;;;;;;;;;;;;;;;;;;5006902;28;20346;-43
2022/07/24 00:54:42;;;;;;;;;;;;;;;;;;5005508;28;19959;-42
2022/07/24 00:57:07;;;;;;;;;;;;;;;;;;5007140;28;19921;-43
2022/07/24 00:59:33;;;;;;;;;;;;;;;;;;5005397;28;19914;-42
2022/07/24 01:01:59;;;;;;;;;;;;;;;;;;5007033;28;19913;-42
2022/07/24 01:04:26;;;;;;;;;;;;;;;;;;5007292;28;20063;-43
2022/07/24 01:06:52;;;;;;;;;;;;;;;;;;5006535;28;19959;-42
2022/07/24 01:09:18;;;;;;;;;;;;;;;;;;5006867;28;20012;-42
2022/07/24 01:11:44;;;;;;;;;;;;;;;;;;5005414;28;20051;-42
2022/07/24 01:14:11;;;;;;;;;;;;;;;;;;5006804;28;19941;-42
2022/07/24 01:16:38;;;;;;;;;;;;;;;;;;4988519;28;19918;-42
2022/07/24 01:19:04;;;;;;;;;;;;;;;;;;4986794;28;20391;-42
2022/07/24 01:21:30;;;;;;;;;;;;;;;;;;4987080;28;20012;-43
2022/07/24 01:23:56;;;;;;;;;;;;;;;;;;4987315;28;19918;-42
2022/07/24 01:26:21;;;;;;;;;;;;;;;;;;5001701;28;19914;-43
2022/07/24 01:28:47;;;;;;;;;;;;;;;;;;5006551;28;19925;-43
2022/07/24 01:31:13;;;;;;;;;;;;;;;;;;4997354;28;19913;-43
2022/07/24 01:33:39;;;;;;;;;;;;;;;;;;4998817;28;19913;-42
2022/07/24 01:36:05;;;;;;;;;;;;;;;;;;4994473;28;19921;-43
2022/07/24 01:38:31;;;;;;;;;;;;;;;;;;4986985;28;19910;-42
2022/07/24 01:40:57;;;;;;;;;;;;;;;;;;4987322;28;19910;-43
2022/07/24 01:43:23;;;;;;;;;;;;;;;;;;4987328;28;19920;-45
2022/07/24 01:45:49;;;;;;;;;;;;;;;;;;4995663;28;19953;-42
2022/07/24 01:48:16;;;;;;;;;;;;;;;;;;5006558;28;19918;-42
2022/07/24 01:50:42;;;;;;;;;;;;;;;;;;5001056;28;20303;-42
2022/07/24 01:53:08;;;;;;;;;;;;;;;;;;5003700;28;19928;-43
2022/07/24 01:55:34;;;;;;;;;;;;;;;;;;5006485;28;19909;-43
2022/07/24 01:58:00;;;;;;;;;;;;;;;;;;5006803;28;19931;-42
2022/07/24 02:00:26;;;;;;;;;;;;;;;;;;5002682;28;19976;-42
2022/07/24 02:02:52;;;;;;;;;;;;;;;;;;4987574;28;19914;-43
2022/07/24 02:05:17;;;;;;;;;;;;;;;;;;4993488;28;19924;-43
2022/07/24 02:07:43;;;;;;;;;;;;;;;;;;5006437;28;19917;-43
2022/07/24 02:10:09;;;;;;;;;;;;;;;;;;4997165;28;19953;-43
2022/07/24 02:12:35;;;;;;;;;;;;;;;;;;5005113;28;19971;-43
2022/07/24 02:15:01;;;;;;;;;;;;;;;;;;5006665;28;19913;-44
2022/07/24 02:17:27;;;;;;;;;;;;;;;;;;5005974;28;19956;-43
2022/07/24 02:19:53;;;;;;;;;;;;;;;;;;5003505;28;20024;-43
2022/07/24 02:22:19;;;;;;;;;;;;;;;;;;4987104;28;19914;-43
2022/07/24 02:24:45;;;;;;;;;;;;;;;;;;4986838;28;19940;-42
2022/07/24 02:27:11;;;;;;;;;;;;;;;;;;4986732;28;19918;-43
2022/07/24 02:29:37;;;;;;;;;;;;;;;;;;4990147;28;19965;-42
2022/07/24 02:32:03;;;;;;;;;;;;;;;;;;5001966;28;19914;-44
2022/07/24 02:34:29;;;;;;;;;;;;;;;;;;4998572;28;19918;-43
2022/07/24 02:36:55;;;;;;;;;;;;;;;;;;5004019;28;19917;-43
2022/07/24 02:39:21;;;;;;;;;;;;;;;;;;4994039;28;19921;-42
2022/07/24 02:41:47;;;;;;;;;;;;;;;;;;5002566;28;20350;-44
2022/07/24 02:44:13;;;;;;;;;;;;;;;;;;4994788;28;19914;-43
2022/07/24 02:46:39;;;;;;;;;;;;;;;;;;5002963;28;19924;-44
2022/07/24 02:49:07;;;;;;;;;;;;;;;;;;4993012;28;19922;-44
2022/07/24 02:51:33;;;;;;;;;;;;;;;;;;4986961;28;19910;-42
2022/07/24 02:54:00;;;;;;;;;;;;;;;;;;4988050;28;19985;-43
2022/07/24 02:56:26;;;;;;;;;;;;;;;;;;4988274;28;20429;-44
2022/07/24 02:58:52;;;;;;;;;;;;;;;;;;4989276;28;19914;-44
2022/07/24 03:01:19;;;;;;;;;;;;;;;;;;4988458;28;19925;-44
2022/07/24 03:03:46;;;;;;;;;;;;;;;;;;4988048;28;19917;-43
2022/07/24 03:06:13;;;;;;;;;;;;;;;;;;4988323;28;19910;-44
2022/07/24 03:08:39;;;;;;;;;;;;;;;;;;4988066;28;19925;-43
2022/07/24 03:11:06;;;;;;;;;;;;;;;;;;4988167;28;19909;-45
2022/07/24 03:13:31;;;;;;;;;;;;;;;;;;4987895;28;19914;-43
2022/07/24 03:15:57;;;;;;;;;;;;;;;;;;4988080;28;20009;-43
2022/07/24 03:18:23;;;;;;;;;;;;;;;;;;4988553;28;20583;-46
2022/07/24 03:20:49;;;;;;;;;;;;;;;;;;4987647;28;20008;-44
2022/07/24 03:23:15;;;;;;;;;;;;;;;;;;4988375;28;20271;-43
2022/07/24 03:25:41;;;;;;;;;;;;;;;;;;4987646;28;20015;-44
2022/07/24 03:28:07;;;;;;;;;;;;;;;;;;4987833;28;19917;-43
2022/07/24 03:30:34;;;;;;;;;;;;;;;;;;4987725;28;19917;-43
2022/07/24 03:32:59;;;;;;;;;;;;;;;;;;4987529;28;19917;-43
2022/07/24 03:35:26;;;;;;;;;;;;;;;;;;4988309;28;19968;-43
2022/07/24 03:37:53;;;;;;;;;;;;;;;;;;4988440;28;20009;-44
2022/07/24 03:40:19;;;;;;;;;;;;;;;;;;4987235;28;19916;-42
2022/07/24 03:42:45;;;;;;;;;;;;;;;;;;4987566;28;20000;-43
2022/07/24 03:45:11;;;;;;;;;;;;;;;;;;4987454;28;19920;-43
2022/07/24 03:47:37;;;;;;;;;;;;;;;;;;4986919;28;19926;-43
2022/07/24 03:50:03;;;;;;;;;;;;;;;;;;4987518;28;19910;-44
2022/07/24 03:52:29;;;;;;;;;;;;;;;;;;4987313;28;19964;-43
2022/07/24 03:54:55;;;;;;;;;;;;;;;;;;4988059;28;19909;-44
2022/07/24 03:57:21;;;;;;;;;;;;;;;;;;4987781;28;19969;-43
2022/07/24 03:59:46;;;;;;;;;;;;;;;;;;4986889;28;19914;-43
2022/07/24 04:02:12;;;;;;;;;;;;;;;;;;4987051;28;19973;-43
2022/07/24 04:04:39;;;;;;;;;;;;;;;;;;4987052;28;20370;-43
2022/07/24 04:07:05;;;;;;;;;;;;;;;;;;4987191;28;20322;-42
2022/07/24 04:09:31;;;;;;;;;;;;;;;;;;4986804;28;19913;-43
2022/07/24 04:11:57;;;;;;;;;;;;;;;;;;4987105;28;19914;-45
2022/07/24 04:14:24;;;;;;;;;;;;;;;;;;4987631;28;19917;-42
2022/07/24 04:16:50;;;;;;;;;;;;;;;;;;4986697;28;20141;-42
2022/07/24 04:19:16;;;;;;;;;;;;;;;;;;4986824;28;20087;-46
2022/07/24 04:21:42;;;;;;;;;;;;;;;;;;4986759;28;19914;-43
2022/07/24 04:24:08;;;;;;;;;;;;;;;;;;4987155;28;19924;-43
2022/07/24 04:26:34;;;;;;;;;;;;;;;;;;4986912;28;19910;-43
2022/07/24 04:29:00;;;;;;;;;;;;;;;;;;4986245;28;19976;-43
2022/07/24 04:31:26;;;;;;;;;;;;;;;;;;4986196;28;19913;-42
2022/07/24 04:33:52;;;;;;;;;;;;;;;;;;4985929;28;20379;-44
2022/07/24 04:36:18;;;;;;;;;;;;;;;;;;4986667;28;19914;-43
2022/07/24 04:38:45;;;;;;;;;;;;;;;;;;4986517;28;19917;-45
2022/07/24 04:41:11;;;;;;;;;;;;;;;;;;4986449;28;19917;-43
2022/07/24 04:43:37;;;;;;;;;;;;;;;;;;4986276;28;19914;-42
2022/07/24 04:46:03;;;;;;;;;;;;;;;;;;4986342;28;20607;-43
2022/07/24 04:48:29;;;;;;;;;;;;;;;;;;4986089;28;19917;-43
2022/07/24 04:50:55;;;;;;;;;;;;;;;;;;4986503;28;19964;-43
2022/07/24 04:53:23;;;;;;;;;;;;;;;;;;4986668;28;19914;-43
2022/07/24 04:55:49;;;;;;;;;;;;;;;;;;4986125;28;19914;-43
2022/07/24 04:58:14;;;;;;;;;;;;;;;;;;4986224;28;19997;-43
2022/07/24 05:00:41;;;;;;;;;;;;;;;;;;4985551;28;19914;-43
2022/07/24 05:03:07;;;;;;;;;;;;;;;;;;4986443;28;20133;-44
2022/07/24 05:05:33;;;;;;;;;;;;;;;;;;4986152;28;20275;-43
2022/07/24 05:07:59;;;;;;;;;;;;;;;;;;4986068;28;19918;-42
2022/07/24 05:10:25;;;;;;;;;;;;;;;;;;4986594;28;19916;-42
2022/07/24 05:12:51;;;;;;;;;;;;;;;;;;4987067;28;20004;-43
2022/07/24 05:15:17;;;;;;;;;;;;;;;;;;4986087;28;19917;-42
2022/07/24 05:17:42;;;;;;;;;;;;;;;;;;4985561;28;20434;-44
2022/07/24 05:20:08;;;;;;;;;;;;;;;;;;4985998;28;19914;-43
2022/07/24 05:22:34;;;;;;;;;;;;;;;;;;4985727;28;20015;-43
2022/07/24 05:25:00;;;;;;;;;;;;;;;;;;4986211;28;19918;-43
2022/07/24 05:27:26;;;;;;;;;;;;;;;;;;4985619;28;19914;-42
2022/07/24 05:29:52;;;;;;;;;;;;;;;;;;4986376;28;20084;-44
2022/07/24 05:32:18;;;;;;;;;;;;;;;;;;4993153;28;19925;-42
2022/07/24 05:34:44;;;;;;;;;;;;;;;;;;5005561;28;20390;-43
2022/07/24 05:37:09;;;;;;;;;;;;;;;;;;4994937;28;19976;-42
2022/07/24 05:39:35;;;;;;;;;;;;;;;;;;4985452;28;20318;-42
2022/07/24 05:42:02;;;;;;;;;;;;;;;;;;4986339;28;19968;-43
2022/07/24 05:44:29;;;;;;;;;;;;;;;;;;4985319;28;19934;-43
2022/07/24 05:46:55;;;;;;;;;;;;;;;;;;4985721;28;19948;-45
2022/07/24 05:49:21;;;;;;;;;;;;;;;;;;4988365;28;19969;-44
2022/07/24 05:51:47;;;;;;;;;;;;;;;;;;4998383;28;20417;-43
2022/07/24 05:54:13;;;;;;;;;;;;;;;;;;4987371;28;19910;-43
2022/07/24 05:56:39;;;;;;;;;;;;;;;;;;4986268;28;20387;-42
2022/07/24 05:59:04;;;;;;;;;;;;;;;;;;5005383;28;20233;-43
2022/07/24 06:01:32;;;;;;;;;;;;;;;;;;5005670;28;20462;-43
2022/07/24 06:03:58;;;;;;;;;;;;;;;;;;5008543;28;19961;-42
2022/07/24 06:06:24;;;;;;;;;;;;;;;;;;5009259;28;19983;-45
2022/07/24 06:08:49;;;;;;;;;;;;;;;;;;5009182;28;19913;-44
2022/07/24 06:11:17;;;;;;;;;;;;;;;;;;5009116;28;19914;-43
2022/07/24 06:13:44;;;;;;;;;;;;;;;;;;5004878;28;20669;-44
2022/07/24 06:16:10;;;;;;;;;;;;;;;;;;4990546;28;19910;-42
2022/07/24 06:18:36;;;;;;;;;;;;;;;;;;4996700;28;19931;-44
2022/07/24 06:21:02;;;;;;;;;;;;;;;;;;5010881;28;19956;-42
2022/07/24 06:23:28;;;;;;;;;;;;;;;;;;5009889;28;19933;-44
2022/07/24 06:25:54;;;;;;;;;;;;;;;;;;5010031;28;19953;-43
2022/07/24 06:28:20;;;;;;;;;;;;;;;;;;5009923;28;19918;-43
2022/07/24 06:30:46;;;;;;;;;;;;;;;;;;5009674;28;19913;-45
2022/07/24 06:33:12;;;;;;;;;;;;;;;;;;5009502;28;19914;-43
2022/07/24 06:35:37;;;;;;;;;;;;;;;;;;5009602;28;19996;-44
2022/07/24 06:38:03;;;;;;;;;;;;;;;;;;5010844;28;19913;-44
2022/07/24 06:40:29;;;;;;;;;;;;;;;;;;5009226;28;19967;-43
2022/07/24 06:42:55;;;;;;;;;;;;;;;;;;5009409;28;19917;-43
2022/07/24 06:45:21;;;;;;;;;;;;;;;;;;5009440;28;19918;-43
2022/07/24 06:47:47;;;;;;;;;;;;;;;;;;5009372;28;19917;-43
2022/07/24 06:50:13;;;;;;;;;;;;;;;;;;5009776;28;19913;-45
2022/07/24 06:52:40;;;;;;;;;;;;;;;;;;5009682;28;19918;-44
2022/07/24 06:55:06;;;;;;;;;;;;;;;;;;5002416;28;19992;-42
2022/07/24 06:57:32;;;;;;;;;;;;;;;;;;4990668;28;19993;-43
2022/07/24 06:59:58;;;;;;;;;;;;;;;;;;4992120;28;19922;-43
2022/07/24 07:02:24;;;;;;;;;;;;;;;;;;4996908;28;20033;-43
2022/07/24 07:04:50;;;;;;;;;;;;;;;;;;4990858;28;20396;-44
2022/07/24 07:07:16;;;;;;;;;;;;;;;;;;4989787;28;19910;-43
2022/07/24 07:09:42;;;;;;;;;;;;;;;;;;4989247;28;19917;-43
2022/07/24 07:12:08;;;;;;;;;;;;;;;;;;4989802;28;19929;-44
2022/07/24 07:14:34;;;;;;;;;;;;;;;;;;5007095;28;19996;-45
2022/07/24 07:17:00;;;;;;;;;;;;;;;;;;5009274;28;19944;-43
2022/07/24 07:19:26;;;;;;;;;;;;;;;;;;5008000;28;19917;-43
2022/07/24 07:21:52;;;;;;;;;;;;;;;;;;5009965;28;20000;-44
2022/07/24 07:24:18;;;;;;;;;;;;;;;;;;4998642;28;19920;-43
2022/07/24 07:26:44;;;;;;;;;;;;;;;;;;4990130;28;19914;-44
2022/07/24 07:29:10;;;;;;;;;;;;;;;;;;4988922;28;20342;-43
2022/07/24 07:31:36;;;;;;;;;;;;;;;;;;4998576;28;19917;-42
2022/07/24 07:34:02;;;;;;;;;;;;;;;;;;4991274;28;19925;-44
2022/07/24 07:36:28;;;;;;;;;;;;;;;;;;5018948;28;19919;-43
2022/07/24 07:38:54;;;;;;;;;;;;;;;;;;5019477;28;19959;-43
2022/07/24 07:41:20;;;;;;;;;;;;;;;;;;5029102;28;19920;-45
2022/07/24 07:43:49;;;;;;;;;;;;;;;;;;5024499;28;19913;-43
2022/07/24 07:46:15;;;;;;;;;;;;;;;;;;5001890;28;19914;-43
2022/07/24 07:48:41;;;;;;;;;;;;;;;;;;5026397;28;19920;-42
2022/07/24 07:51:07;;;;;;;;;;;;;;;;;;5010427;28;19913;-43
2022/07/24 07:53:33;;;;;;;;;;;;;;;;;;5009255;28;19984;-43
2022/07/24 07:55:59;;;;;;;;;;;;;;;;;;5009576;28;19909;-43
2022/07/24 07:58:26;;;;;;;;;;;;;;;;;;5008667;28;19920;-43
2022/07/24 08:00:53;;;;;;;;;;;;;;;;;;5008452;28;19996;-43
2022/07/24 08:03:19;;;;;;;;;;;;;;;;;;5005047;28;19953;-45
2022/07/24 08:05:45;;;;;;;;;;;;;;;;;;5017807;28;20352;-45
2022/07/24 08:08:11;;;;;;;;;;;;;;;;;;5028465;28;19913;-43
2022/07/24 08:10:36;;;;;;;;;;;;;;;;;;5028726;28;19945;-43
2022/07/24 08:13:02;;;;;;;;;;;;;;;;;;5002752;28;20019;-45
2022/07/24 08:15:28;;;;;;;;;;;;;;;;;;4999214;28;19913;-43
2022/07/24 08:17:54;;;;;;;;;;;;;;;;;;5013359;28;19960;-43
2022/07/24 08:20:21;;;;;;;;;;;;;;;;;;5008182;28;19913;-44
2022/07/24 08:22:47;;;;;;;;;;;;;;;;;;5009231;28;20434;-43
2022/07/24 08:25:13;;;;;;;;;;;;;;;;;;4996277;28;20318;-43
2022/07/24 08:27:39;;;;;;;;;;;;;;;;;;4990957;28;19922;-43
2022/07/24 08:30:05;;;;;;;;;;;;;;;;;;5014420;28;19954;-42
2022/07/24 08:32:31;;;;;;;;;;;;;;;;;;4998370;28;19960;-42
2022/07/24 08:34:57;;;;;;;;;;;;;;;;;;4992249;28;19910;-42
2022/07/24 08:37:23;;;;;;;;;;;;;;;;;;4990125;28;19918;-43
2022/07/24 08:39:49;;;;;;;;;;;;;;;;;;5008555;28;19948;-42
2022/07/24 08:42:15;;;;;;;;;;;;;;;;;;4989982;28;19914;-44
2022/07/24 08:44:42;;;;;;;;;;;;;;;;;;4987475;28;19909;-43
2022/07/24 08:47:09;;;;;;;;;;;;;;;;;;4987791;28;19921;-44
2022/07/24 08:49:35;;;;;;;;;;;;;;;;;;4987212;28;20001;-43
2022/07/24 08:52:01;;;;;;;;;;;;;;;;;;4987542;28;20379;-43
2022/07/24 08:54:28;;;;;;;;;;;;;;;;;;4987251;28;19914;-42
2022/07/24 08:56:54;;;;;;;;;;;;;;;;;;4987792;28;20469;-45
2022/07/24 08:59:21;;;;;;;;;;;;;;;;;;4987112;28;19917;-42
2022/07/24 09:01:46;;;;;;;;;;;;;;;;;;4987820;28;19929;-44
2022/07/24 09:04:12;;;;;;;;;;;;;;;;;;4987303;28;20382;-42
2022/07/24 09:06:38;;;;;;;;;;;;;;;;;;4986917;28;19910;-43
2022/07/24 09:09:04;;;;;;;;;;;;;;;;;;4989882;28;19921;-43
2022/07/24 09:11:31;;;;;;;;;;;;;;;;;;5006348;28;19913;-44
2022/07/24 09:16:42;;;;;;;;;;;;;;;;;;5006298;28;20011;-42
2022/07/24 09:19:08;;;;;;;;;;;;;;;;;;5006835;28;19945;-42
2022/07/24 09:21:35;;;;;;;;;;;;;;;;;;5005077;28;19913;-44
2022/07/24 09:24:02;;;;;;;;;;;;;;;;;;5005480;28;19913;-42
2022/07/24 09:26:28;;;;;;;;;;;;;;;;;;4986007;28;19924;-42
2022/07/24 09:28:54;;;;;;;;;;;;;;;;;;5004559;28;19921;-42
2022/07/24 09:31:23;;;;;;;;;;;;;;;;;;5006757;28;19968;-43
2022/07/24 09:33:49;;;;;;;;;;;;;;;;;;4986160;28;19996;-43
2022/07/24 09:36:16;;;;;;;;;;;;;;;;;;4986960;28;20362;-43
2022/07/24 09:38:42;;;;;;;;;;;;;;;;;;4989646;28;19910;-42
2022/07/24 09:41:08;;;;;;;;;;;;;;;;;;4991095;28;20299;-43
2022/07/24 09:43:35;;;;;;;;;;;;;;;;;;4990513;28;19968;-43
2022/07/24 09:46:01;;;;;;;;;;;;;;;;;;4991651;28;20350;-43
2022/07/24 09:48:27;;;;;;;;;;;;;;;;;;4990951;28;19914;-42
2022/07/24 09:50:53;;;;;;;;;;;;;;;;;;4990912;28;19960;-43
2022/07/24 09:53:19;;;;;;;;;;;;;;;;;;4990731;28;19916;-42
2022/07/24 09:55:44;;;;;;;;;;;;;;;;;;4990377;28;19945;-42
2022/07/24 09:58:10;;;;;;;;;;;;;;;;;;4990719;28;19941;-42
2022/07/24 10:00:36;;;;;;;;;;;;;;;;;;4990055;28;20004;-43
2022/07/24 10:03:02;;;;;;;;;;;;;;;;;;4990525;28;19924;-42
2022/07/24 10:05:29;;;;;;;;;;;;;;;;;;4990796;28;19918;-44
2022/07/24 10:07:55;;;;;;;;;;;;;;;;;;4990690;28;19918;-43
2022/07/24 10:10:22;;;;;;;;;;;;;;;;;;5002824;28;20004;-44
2022/07/24 10:12:48;;;;;;;;;;;;;;;;;;5009568;28;19914;-43
2022/07/24 10:15:14;;;;;;;;;;;;;;;;;;5010010;28;19963;-44
2022/07/24 10:17:39;;;;;;;;;;;;;;;;;;5009617;28;20302;-43
2022/07/24 10:20:05;;;;;;;;;;;;;;;;;;5009921;28;19929;-44
2022/07/24 10:22:32;;;;;;;;;;;;;;;;;;5009970;28;20382;-42
2022/07/24 10:25:00;;;;;;;;;;;;;;;;;;5010727;28;20302;-45
2022/07/24 10:27:26;;;;;;;;;;;;;;;;;;4989633;28;19928;-42
2022/07/24 10:29:52;;;;;;;;;;;;;;;;;;4989892;28;20020;-45
2022/07/24 10:32:18;;;;;;;;;;;;;;;;;;4998539;28;19913;-43
2022/07/24 10:34:44;;;;;;;;;;;;;;;;;;5002624;28;19920;-43
2022/07/24 10:37:10;;;;;;;;;;;;;;;;;;5004508;28;19910;-43
2022/07/24 10:39:36;;;;;;;;;;;;;;;;;;5010338;28;19967;-44
2022/07/24 10:42:02;;;;;;;;;;;;;;;;;;5010841;28;19909;-43
2022/07/24 10:44:28;;;;;;;;;;;;;;;;;;5011114;28;20016;-44
2022/07/24 10:46:54;;;;;;;;;;;;;;;;;;5010712;28;20299;-42
2022/07/24 10:49:20;;;;;;;;;;;;;;;;;;5009229;28;19924;-44
2022/07/24 10:51:46;;;;;;;;;;;;;;;;;;5010235;28;19913;-44
2022/07/24 10:54:12;;;;;;;;;;;;;;;;;;5002003;28;19910;-44
2022/07/24 10:56:41;;;;;;;;;;;;;;;;;;4992352;28;19953;-43
2022/07/24 10:59:07;;;;;;;;;;;;;;;;;;5022541;28;20301;-46
2022/07/24 11:01:33;;;;;;;;;;;;;;;;;;5029776;28;19909;-42
2022/07/24 11:03:59;;;;;;;;;;;;;;;;;;5012574;28;20440;-44
2022/07/24 11:06:25;;;;;;;;;;;;;;;;;;5020222;28;19960;-44
2022/07/24 11:08:51;;;;;;;;;;;;;;;;;;4998526;28;19921;-43
2022/07/24 11:11:18;;;;;;;;;;;;;;;;;;5002339;28;19910;-43
2022/07/24 11:13:44;;;;;;;;;;;;;;;;;;4990266;28;19920;-43
2022/07/24 11:16:10;;;;;;;;;;;;;;;;;;4990608;28;20365;-44
2022/07/24 11:18:36;;;;;;;;;;;;;;;;;;5016796;28;19945;-43
2022/07/24 11:21:01;;;;;;;;;;;;;;;;;;5012644;28;19967;-45
2022/07/24 11:23:27;;;;;;;;;;;;;;;;;;4994802;28;20016;-44
2022/07/24 11:25:53;;;;;;;;;;;;;;;;;;4988731;28;19921;-46
2022/07/24 11:28:19;;;;;;;;;;;;;;;;;;5006344;28;19925;-43
2022/07/24 11:30:46;;;;;;;;;;;;;;;;;;5005998;28;20107;-47
2022/07/24 11:33:12;;;;;;;;;;;;;;;;;;4986668;28;19910;-48
2022/07/24 11:35:38;;;;;;;;;;;;;;;;;;4987065;28;19921;-47
2022/07/24 11:38:05;;;;;;;;;;;;;;;;;;5001904;28;19913;-48
2022/07/24 11:40:31;;;;;;;;;;;;;;;;;;4987340;28;19910;-45
2022/07/24 11:42:57;;;;;;;;;;;;;;;;;;4986974;28;19946;-43
2022/07/24 11:45:23;;;;;;;;;;;;;;;;;;4986757;28;19914;-45
2022/07/24 11:47:49;;;;;;;;;;;;;;;;;;4985513;28;19917;-46
2022/07/24 11:50:15;;;;;;;;;;;;;;;;;;5000819;28;19913;-46
2022/07/24 11:52:41;;;;;;;;;;;;;;;;;;4999182;28;19918;-43
2022/07/24 11:55:07;;;;;;;;;;;;;;;;;;4985209;28;20422;-44
2022/07/24 11:57:34;;;;;;;;;;;;;;;;;;4986466;28;20405;-45
2022/07/24 12:00:00;;;;;;;;;;;;;;;;;;4986683;28;20310;-45
2022/07/24 12:02:26;;;;;;;;;;;;;;;;;;5003156;28;19918;-45
2022/07/24 12:04:53;;;;;;;;;;;;;;;;;;4991282;28;20009;-44
2022/07/24 12:07:20;;;;;;;;;;;;;;;;;;4986621;28;19996;-44
2022/07/24 12:09:46;;;;;;;;;;;;;;;;;;4986192;28;20022;-43
2022/07/24 12:12:12;;;;;;;;;;;;;;;;;;4986647;28;20408;-45
2022/07/24 12:14:38;;;;;;;;;;;;;;;;;;4986141;28;19918;-42
2022/07/24 12:17:04;;;;;;;;;;;;;;;;;;4995683;28;19917;-44
2022/07/24 12:19:29;;;;;;;;;;;;;;;;;;5003252;28;19918;-44
2022/07/24 12:21:56;;;;;;;;;;;;;;;;;;5005891;28;19913;-43
2022/07/24 12:24:22;;;;;;;;;;;;;;;;;;5003897;28;19959;-44
2022/07/24 12:26:50;;;;;;;;;;;;;;;;;;5002205;28;19913;-44
2022/07/24 12:29:16;;;;;;;;;;;;;;;;;;4998046;28;19917;-44
2022/07/24 12:31:43;;;;;;;;;;;;;;;;;;5005846;28;19959;-45
2022/07/24 12:34:09;;;;;;;;;;;;;;;;;;5002683;28;19914;-44
2022/07/24 12:36:36;;;;;;;;;;;;;;;;;;4998295;28;20370;-42
2022/07/24 12:39:04;;;;;;;;;;;;;;;;;;4987972;28;19918;-45
2022/07/24 12:41:30;;;;;;;;;;;;;;;;;;4996119;28;20261;-46
2022/07/24 12:43:57;;;;;;;;;;;;;;;;;;4993408;28;19925;-44
2022/07/24 12:46:23;;;;;;;;;;;;;;;;;;4990396;28;19917;-43
2022/07/24 12:48:49;;;;;;;;;;;;;;;;;;4997210;28;19925;-45
2022/07/24 12:51:15;;;;;;;;;;;;;;;;;;4998378;28;19913;-47
2022/07/24 12:53:41;;;;;;;;;;;;;;;;;;4989525;28;19914;-44
2022/07/24 12:56:07;;;;;;;;;;;;;;;;;;4994526;28;19928;-44
2022/07/24 12:58:33;;;;;;;;;;;;;;;;;;4988583;28;19923;-44
2022/07/24 13:00:59;;;;;;;;;;;;;;;;;;4996532;28;20064;-44
2022/07/24 13:03:25;;;;;;;;;;;;;;;;;;4986562;28;19914;-44
2022/07/24 13:05:51;;;;;;;;;;;;;;;;;;4992333;28;19913;-45
2022/07/24 13:08:18;;;;;;;;;;;;;;;;;;4992930;28;20023;-44
2022/07/24 13:10:44;;;;;;;;;;;;;;;;;;4997342;28;19914;-45
2022/07/24 13:13:10;;;;;;;;;;;;;;;;;;4992933;28;20067;-43
2022/07/24 13:15:36;;;;;;;;;;;;;;;;;;4995228;28;20299;-45
2022/07/24 13:18:02;;;;;;;;;;;;;;;;;;4992193;28;19918;-45
2022/07/24 13:20:27;;;;;;;;;;;;;;;;;;4988989;28;19922;-46
2022/07/24 13:22:55;;;;;;;;;;;;;;;;;;4992455;28;19936;-43
2022/07/24 13:25:20;;;;;;;;;;;;;;;;;;4995836;28;20592;-44
2022/07/24 13:27:46;;;;;;;;;;;;;;;;;;5000039;28;19965;-47
2022/07/24 13:30:14;;;;;;;;;;;;;;;;;;5001773;28;19917;-43
2022/07/24 13:32:39;;;;;;;;;;;;;;;;;;4990077;28;19913;-48
2022/07/24 13:35:05;;;;;;;;;;;;;;;;;;4994980;28;19932;-44
2022/07/24 13:37:32;;;;;;;;;;;;;;;;;;4999401;28;20402;-47
2022/07/24 13:39:58;;;;;;;;;;;;;;;;;;5000619;28;20417;-46
2022/07/24 13:42:24;;;;;;;;;;;;;;;;;;4996961;28;20000;-44
2022/07/24 13:44:50;;;;;;;;;;;;;;;;;;4987412;28;19914;-44
2022/07/24 13:47:16;;;;;;;;;;;;;;;;;;5005088;28;19975;-45
2022/07/24 13:49:43;;;;;;;;;;;;;;;;;;4999661;28;19922;-43
2022/07/24 13:52:09;;;;;;;;;;;;;;;;;;4992339;28;19913;-43
2022/07/24 13:54:35;;;;;;;;;;;;;;;;;;4989352;28;19936;-44
2022/07/24 13:57:03;;;;;;;;;;;;;;;;;;4991011;28;19914;-43
2022/07/24 13:59:29;;;;;;;;;;;;;;;;;;4988930;28;19914;-44
2022/07/24 14:01:54;;;;;;;;;;;;;;;;;;4990565;28;19960;-43
2022/07/24 14:04:20;;;;;;;;;;;;;;;;;;4992138;28;20377;-43
2022/07/24 14:06:47;;;;;;;;;;;;;;;;;;4991228;28;19917;-43
2022/07/24 14:09:14;;;;;;;;;;;;;;;;;;4997905;28;19926;-44
2022/07/24 14:11:41;;;;;;;;;;;;;;;;;;4999729;28;19991;-44
2022/07/24 14:14:07;;;;;;;;;;;;;;;;;;4996737;28;19941;-44
2022/07/24 14:16:33;;;;;;;;;;;;;;;;;;4997981;28;20390;-44
2022/07/24 14:18:58;;;;;;;;;;;;;;;;;;4991078;28;19914;-45
2022/07/24 14:21:25;;;;;;;;;;;;;;;;;;4997215;28;19925;-45
2022/07/24 14:23:51;;;;;;;;;;;;;;;;;;4989701;28;20295;-44
2022/07/24 14:26:17;;;;;;;;;;;;;;;;;;4996607;28;19961;-44
2022/07/24 14:28:43;;;;;;;;;;;;;;;;;;4995118;28;20005;-44
2022/07/24 14:31:09;;;;;;;;;;;;;;;;;;5002840;28;19917;-44
2022/07/24 14:33:36;;;;;;;;;;;;;;;;;;4998881;28;19913;-44
2022/07/24 14:36:02;;;;;;;;;;;;;;;;;;4997561;28;19914;-43
2022/07/24 14:38:28;;;;;;;;;;;;;;;;;;4995677;28;20180;-43
2022/07/24 14:40:53;;;;;;;;;;;;;;;;;;5006265;28;19913;-45
2022/07/24 14:43:19;;;;;;;;;;;;;;;;;;5001150;28;19921;-43
2022/07/24 14:45:46;;;;;;;;;;;;;;;;;;4990070;28;19918;-47
2022/07/24 14:48:13;;;;;;;;;;;;;;;;;;5004998;28;20028;-44
2022/07/24 14:50:38;;;;;;;;;;;;;;;;;;4995399;28;19961;-45
2022/07/24 14:53:05;;;;;;;;;;;;;;;;;;4989955;28;20027;-46
2022/07/24 14:55:31;;;;;;;;;;;;;;;;;;5007648;28;20374;-46
2022/07/24 14:57:57;;;;;;;;;;;;;;;;;;5007902;28;19928;-45
2022/07/24 15:00:23;;;;;;;;;;;;;;;;;;5000255;28;19924;-44
2022/07/24 15:02:49;;;;;;;;;;;;;;;;;;5000026;28;19917;-43
2022/07/24 15:05:15;;;;;;;;;;;;;;;;;;5001862;28;19921;-43
2022/07/24 15:07:42;;;;;;;;;;;;;;;;;;5006291;28;19913;-43
2022/07/24 15:10:08;;;;;;;;;;;;;;;;;;5002933;28;19921;-44
2022/07/24 15:12:34;;;;;;;;;;;;;;;;;;4997099;28;20045;-43
2022/07/24 15:15:00;;;;;;;;;;;;;;;;;;5005688;28;19913;-43
2022/07/24 15:17:25;;;;;;;;;;;;;;;;;;4989572;28;19964;-42
2022/07/24 15:19:51;;;;;;;;;;;;;;;;;;4997434;28;19929;-42
2022/07/24 15:22:17;;;;;;;;;;;;;;;;;;4999189;28;20311;-45
2022/07/24 15:24:43;;;;;;;;;;;;;;;;;;4993193;28;20306;-43
2022/07/24 15:27:09;;;;;;;;;;;;;;;;;;5000837;28;19920;-45
2022/07/24 15:29:35;;;;;;;;;;;;;;;;;;5003044;28;19921;-46
2022/07/24 15:32:01;;;;;;;;;;;;;;;;;;5000656;28;20349;-46
2022/07/24 15:34:27;;;;;;;;;;;;;;;;;;4995353;28;19918;-44
2022/07/24 15:36:54;;;;;;;;;;;;;;;;;;4998355;28;19917;-44
2022/07/24 15:39:20;;;;;;;;;;;;;;;;;;4992300;28;19960;-44
2022/07/24 15:41:46;;;;;;;;;;;;;;;;;;4997043;28;20384;-44
2022/07/24 15:44:12;;;;;;;;;;;;;;;;;;4989900;28;20005;-46
2022/07/24 15:46:38;;;;;;;;;;;;;;;;;;5000000;28;20338;-43
2022/07/24 15:49:04;;;;;;;;;;;;;;;;;;4993748;28;19928;-43
2022/07/24 15:51:31;;;;;;;;;;;;;;;;;;4999332;28;19953;-44
2022/07/24 15:53:57;;;;;;;;;;;;;;;;;;4991651;28;20365;-43
2022/07/24 15:56:23;;;;;;;;;;;;;;;;;;4993936;28;19918;-44
2022/07/24 15:58:49;;;;;;;;;;;;;;;;;;4991082;28;19924;-45
2022/07/24 16:01:15;;;;;;;;;;;;;;;;;;4990485;28;20322;-43
2022/07/24 16:03:41;;;;;;;;;;;;;;;;;;5005155;28;20428;-46
2022/07/24 16:06:06;;;;;;;;;;;;;;;;;;5004201;28;19913;-44
2022/07/24 16:08:32;;;;;;;;;;;;;;;;;;4994174;28;20675;-44
2022/07/24 16:10:58;;;;;;;;;;;;;;;;;;4995364;28;20032;-48
2022/07/24 16:13:24;;;;;;;;;;;;;;;;;;4993398;28;19967;-44
2022/07/24 16:15:50;;;;;;;;;;;;;;;;;;4992868;28;19914;-43
2022/07/24 16:18:16;;;;;;;;;;;;;;;;;;4999249;28;19922;-45
2022/07/24 16:20:42;;;;;;;;;;;;;;;;;;4994692;28;19914;-45
2022/07/24 16:23:08;;;;;;;;;;;;;;;;;;4995750;28;20009;-45
2022/07/24 16:25:34;;;;;;;;;;;;;;;;;;4995213;28;20154;-44
2022/07/24 16:28:00;;;;;;;;;;;;;;;;;;4994233;28;20366;-45
2022/07/24 16:30:25;;;;;;;;;;;;;;;;;;4987003;28;20008;-44
2022/07/24 16:32:51;;;;;;;;;;;;;;;;;;5004144;28;19913;-48
2022/07/24 16:35:18;;;;;;;;;;;;;;;;;;4997138;28;19928;-43
2022/07/24 16:37:44;;;;;;;;;;;;;;;;;;4995890;28;20410;-47
2022/07/24 16:40:10;;;;;;;;;;;;;;;;;;4995618;28;19920;-47